Havbugvin — XPYL — position and weather

sailwx.info

Track history (hours):
 
Tides and Currents Weather Stations Pressure Air Temp Water Temp Dewpoint Dewpoint Depression Visibility Wind Speed Wind Dir Waves Ship Positions

Havbugvin

Last reported at 2016-Apr-25 04:21 UTC. Time now 2016-Apr-29 10:10 UTC.
Position N 61°60' W 006°45'.

Length 38 m.

Type: Fishing. MMSI: 231181000.

Date/timePositionNaut miles runAvg speedWind from/ knotsBaromVisibWave heightAir tempDewpointWater temp
2016-Apr-25 04:21N 61°60' W 006°45'  
2016-Apr-20 12:33N 61°42' W 008°17'2 1.6
2016-Apr-20 11:33N 61°43' W 008°19'2 1.7
2016-Apr-20 10:33N 61°42' W 008°21'4 3.5
2016-Apr-20 09:33N 61°44' W 008°27'1 1.3
2016-Apr-20 08:31N 61°43' W 008°25'20 0.5
2016-Apr-18 16:32N 61°56' W 007°51'2 1.6
2016-Apr-18 15:33N 61°55' W 007°50'1 1.4
2016-Apr-18 14:33N 61°54' W 007°49'1 1.5
2016-Apr-18 13:33N 61°52' W 007°47'1 1.5
2016-Apr-18 12:33N 61°51' W 007°46'5 4.5
2016-Apr-18 11:33N 61°55' W 007°41'  
Track history (hours):
 
Tides and Currents Weather Stations Pressure Air Temp Water Temp Dewpoint Dewpoint Depression Visibility Wind Speed Wind Dir Waves Ship Positions

Havbugvin

Last reported at 2016-Apr-25 04:21 UTC. Time now 2016-Apr-29 10:10 UTC.
Position N 61°60' W 006°45'.

Length 38 m.

Type: Fishing. MMSI: 231181000.

Date/timePositionNaut miles runAvg speedWind from/ knotsBaromVisibWave heightAir tempDewpointWater temp
2016-Apr-25 04:21N 61°60' W 006°45'  
2016-Apr-20 12:33N 61°42' W 008°17'2 1.6
2016-Apr-20 11:33N 61°43' W 008°19'2 1.7
2016-Apr-20 10:33N 61°42' W 008°21'4 3.5
2016-Apr-20 09:33N 61°44' W 008°27'1 1.3
2016-Apr-20 08:31N 61°43' W 008°25'20 0.5
2016-Apr-18 16:32N 61°56' W 007°51'2 1.6
2016-Apr-18 15:33N 61°55' W 007°50'1 1.4
2016-Apr-18 14:33N 61°54' W 007°49'1 1.5
2016-Apr-18 13:33N 61°52' W 007°47'1 1.5
2016-Apr-18 12:33N 61°51' W 007°46'5 4.5
2016-Apr-18 11:33N 61°55' W 007°41'  

Dump ship's entire track history